createdAt,value
2022-08-26T00:00:29.077Z,22.20
2022-08-26T00:01:31.976Z,22.20
2022-08-26T00:02:35.064Z,22.18
2022-08-26T00:03:37.330Z,22.18
2022-08-26T00:04:40.353Z,22.17
2022-08-26T00:05:43.592Z,22.18
2022-08-26T00:06:46.560Z,22.18
2022-08-26T00:07:49.683Z,22.17
2022-08-26T00:08:54.644Z,22.18
2022-08-26T00:09:56.537Z,22.18
2022-08-26T00:10:59.956Z,22.16
2022-08-26T00:12:03.431Z,22.16
2022-08-26T00:13:07.833Z,22.17
2022-08-26T00:14:12.235Z,22.15
2022-08-26T00:15:16.489Z,22.15
2022-08-26T00:16:19.665Z,22.15
2022-08-26T00:17:21.994Z,22.14
2022-08-26T00:18:25.127Z,22.15
2022-08-26T00:19:28.123Z,22.13
2022-08-26T00:20:33.557Z,22.13
2022-08-26T00:21:35.777Z,22.12
2022-08-26T00:22:40.527Z,22.11
2022-08-26T00:23:42.524Z,22.11
2022-08-26T00:24:48.066Z,22.11
2022-08-26T00:25:50.252Z,22.10
2022-08-26T00:26:53.243Z,22.11
2022-08-26T00:27:55.137Z,22.10
2022-08-26T00:29:00.420Z,22.10
2022-08-26T00:30:04.039Z,22.10
2022-08-26T00:31:07.121Z,22.10
2022-08-26T00:32:09.125Z,22.08
2022-08-26T00:33:14.742Z,22.07
2022-08-26T00:34:16.875Z,22.05
2022-08-26T00:35:23.741Z,22.03
2022-08-26T00:36:25.832Z,22.01
2022-08-26T00:37:33.330Z,22.02
2022-08-26T00:38:37.911Z,21.99
2022-08-26T00:39:42.179Z,21.99
2022-08-26T00:40:47.123Z,21.98
2022-08-26T00:41:50.529Z,21.98
2022-08-26T00:42:52.714Z,21.98
2022-08-26T00:43:55.812Z,21.97
2022-08-26T00:45:00.730Z,21.97
2022-08-26T00:46:09.413Z,21.97
2022-08-26T00:47:21.610Z,21.96
2022-08-26T00:48:27.236Z,21.96
2022-08-26T00:49:37.870Z,21.95
2022-08-26T00:50:49.179Z,21.95
2022-08-26T00:51:55.702Z,21.95
2022-08-26T00:52:59.881Z,21.94
2022-08-26T00:54:06.368Z,21.95
2022-08-26T00:55:12.112Z,21.94
2022-08-26T00:56:28.935Z,21.93
2022-08-26T00:57:32.104Z,21.93
2022-08-26T00:58:37.955Z,21.91
2022-08-26T00:59:45.212Z,21.89
2022-08-26T01:00:49.680Z,21.89
2022-08-26T01:01:52.037Z,21.87
2022-08-26T01:02:56.579Z,21.86
2022-08-26T01:04:00.876Z,21.86
2022-08-26T01:05:05.947Z,21.83
2022-08-26T01:06:12.599Z,21.83
2022-08-26T01:07:16.479Z,21.83
2022-08-26T01:08:18.484Z,21.83
2022-08-26T01:09:23.650Z,21.82
2022-08-26T01:10:29.780Z,21.82
2022-08-26T01:11:34.052Z,21.80
2022-08-26T01:12:41.018Z,21.79
2022-08-26T01:13:44.056Z,21.79
2022-08-26T01:14:47.380Z,21.78
2022-08-26T01:15:57.155Z,21.77
2022-08-26T01:17:02.149Z,21.77
2022-08-26T01:18:08.893Z,21.75
2022-08-26T01:19:19.126Z,21.77
2022-08-26T01:20:30.084Z,21.77
2022-08-26T01:21:40.543Z,21.77
2022-08-26T01:22:54.488Z,21.77
2022-08-26T01:23:58.481Z,21.76
2022-08-26T01:25:03.413Z,21.74
2022-08-26T01:26:19.392Z,21.74
2022-08-26T01:27:23.445Z,21.73
2022-08-26T01:28:32.062Z,21.73
2022-08-26T01:29:37.509Z,21.71
2022-08-26T01:30:41.489Z,21.70
2022-08-26T01:31:47.208Z,21.69
2022-08-26T01:32:50.638Z,21.68
2022-08-26T01:34:06.836Z,21.67
2022-08-26T01:35:11.409Z,21.65
2022-08-26T01:36:15.204Z,21.65
2022-08-26T01:37:22.155Z,21.63
2022-08-26T01:38:27.779Z,21.63
2022-08-26T01:39:35.740Z,21.62
2022-08-26T01:40:42.195Z,21.62
2022-08-26T01:41:45.747Z,21.62
2022-08-26T01:42:50.125Z,21.61
2022-08-26T01:43:55.840Z,21.61
2022-08-26T01:45:02.308Z,21.60
2022-08-26T01:46:04.971Z,21.59
2022-08-26T01:47:10.567Z,21.60
2022-08-26T01:48:15.949Z,21.59
2022-08-26T01:49:19.837Z,21.58
2022-08-26T01:50:27.542Z,21.58
2022-08-26T01:51:32.146Z,21.58
2022-08-26T01:52:38.521Z,21.58
2022-08-26T01:53:43.585Z,21.57
2022-08-26T01:54:50.460Z,21.57
2022-08-26T01:55:58.207Z,21.56
2022-08-26T01:57:02.074Z,21.55
2022-08-26T01:58:09.897Z,21.53
2022-08-26T01:59:16.826Z,21.52
2022-08-26T02:00:20.308Z,21.50
2022-08-26T02:01:24.122Z,21.49
2022-08-26T02:02:32.243Z,21.48
2022-08-26T02:03:38.600Z,21.46
2022-08-26T02:04:49.955Z,21.45
2022-08-26T02:05:58.428Z,21.45
2022-08-26T02:07:05.352Z,21.44
2022-08-26T02:08:08.489Z,21.43
2022-08-26T02:09:13.637Z,21.43
2022-08-26T02:10:17.093Z,21.43
2022-08-26T02:11:23.241Z,21.42
2022-08-26T02:12:28.313Z,21.43
2022-08-26T02:13:33.228Z,21.42
2022-08-26T02:14:43.517Z,21.42
2022-08-26T02:15:46.767Z,21.42
2022-08-26T02:16:52.952Z,21.42
2022-08-26T02:17:55.866Z,21.41
2022-08-26T02:19:02.384Z,21.41
2022-08-26T02:20:06.829Z,21.39
2022-08-26T02:21:17.735Z,21.40
2022-08-26T02:22:22.940Z,21.39
2022-08-26T02:23:27.910Z,21.38
2022-08-26T02:24:48.132Z,21.38
2022-08-26T02:25:55.768Z,21.38
2022-08-26T02:26:59.559Z,21.39
2022-08-26T02:28:01.719Z,21.37
2022-08-26T02:29:10.888Z,21.35
2022-08-26T02:30:18.256Z,21.34
2022-08-26T02:31:21.240Z,21.33
2022-08-26T02:32:24.810Z,21.32
2022-08-26T02:33:29.335Z,21.31
2022-08-26T02:34:32.914Z,21.29
2022-08-26T02:35:37.269Z,21.30
2022-08-26T02:36:39.959Z,21.29
2022-08-26T02:37:43.082Z,21.29
2022-08-26T02:38:45.231Z,21.27
2022-08-26T02:39:50.768Z,21.26
2022-08-26T02:40:54.599Z,21.26
2022-08-26T02:41:57.776Z,21.25
2022-08-26T02:43:00.275Z,21.26
2022-08-26T02:44:07.135Z,21.26
2022-08-26T02:45:10.876Z,21.26
2022-08-26T02:46:23.091Z,21.26
2022-08-26T02:47:32.728Z,21.24
2022-08-26T02:48:35.796Z,21.25
2022-08-26T02:49:38.108Z,21.23
2022-08-26T02:50:42.020Z,21.24
2022-08-26T02:51:44.616Z,21.24
2022-08-26T02:52:48.305Z,21.22
2022-08-26T02:53:50.284Z,21.23
2022-08-26T02:54:55.586Z,21.22
2022-08-26T02:55:57.729Z,21.22
2022-08-26T02:57:03.228Z,21.22
2022-08-26T02:58:05.395Z,21.21
2022-08-26T02:59:08.473Z,21.21
2022-08-26T03:00:14.513Z,21.21
2022-08-26T03:01:23.028Z,21.21
2022-08-26T03:02:51.457Z,21.20
2022-08-26T03:03:55.003Z,21.19
2022-08-26T03:05:01.879Z,21.19
2022-08-26T03:06:05.660Z,21.19
2022-08-26T03:07:07.785Z,21.18
2022-08-26T03:08:11.781Z,21.17
2022-08-26T03:09:15.980Z,21.17
2022-08-26T03:10:23.231Z,21.17
2022-08-26T03:11:32.395Z,21.16
2022-08-26T03:12:36.174Z,21.16
2022-08-26T03:13:38.353Z,21.15
2022-08-26T03:14:41.626Z,21.15
2022-08-26T03:15:43.595Z,21.15
2022-08-26T03:16:50.886Z,21.15
2022-08-26T03:17:52.824Z,21.15
2022-08-26T03:18:55.773Z,21.15
2022-08-26T03:19:58.007Z,21.14
2022-08-26T03:21:06.803Z,21.12
2022-08-26T03:22:08.730Z,21.13
2022-08-26T03:23:12.023Z,21.12
2022-08-26T03:24:14.735Z,21.10
2022-08-26T03:25:18.231Z,21.10
2022-08-26T03:26:22.051Z,21.10
2022-08-26T03:27:25.120Z,21.09
2022-08-26T03:28:27.398Z,21.08
2022-08-26T03:29:53.666Z,21.06
2022-08-26T03:30:57.969Z,21.04
2022-08-26T03:32:00.400Z,21.03
2022-08-26T03:33:03.469Z,21.02
2022-08-26T03:34:06.310Z,21.01
2022-08-26T03:35:09.456Z,21.00
2022-08-26T03:36:12.584Z,20.99
2022-08-26T03:37:14.825Z,20.98
2022-08-26T03:38:17.764Z,20.98
2022-08-26T03:39:19.902Z,20.97
2022-08-26T03:40:23.483Z,20.97
2022-08-26T03:41:27.145Z,20.96
2022-08-26T03:42:30.224Z,20.97
2022-08-26T03:43:32.134Z,20.96
2022-08-26T03:44:35.483Z,20.97
2022-08-26T03:45:37.710Z,20.98
2022-08-26T03:46:41.860Z,20.96
2022-08-26T03:47:47.520Z,20.97
2022-08-26T03:48:50.553Z,20.96
2022-08-26T03:49:52.626Z,20.95
2022-08-26T03:50:56.773Z,20.95
2022-08-26T03:51:59.654Z,20.94
2022-08-26T03:53:03.260Z,20.94
2022-08-26T03:54:06.835Z,20.95
2022-08-26T03:55:12.064Z,20.94
2022-08-26T03:56:14.873Z,20.94
2022-08-26T03:57:19.492Z,20.93
2022-08-26T03:58:24.152Z,20.93
2022-08-26T03:59:27.806Z,20.92
2022-08-26T04:00:30.366Z,20.92
2022-08-26T04:01:33.527Z,20.92
2022-08-26T04:02:35.710Z,20.91
2022-08-26T04:03:56.580Z,20.91
2022-08-26T04:05:01.203Z,20.91
2022-08-26T04:06:03.820Z,20.89
2022-08-26T04:07:07.034Z,20.88
2022-08-26T04:08:10.114Z,20.89
2022-08-26T04:09:15.474Z,20.88
2022-08-26T04:10:20.116Z,20.88
2022-08-26T04:11:27.556Z,20.88
2022-08-26T04:12:31.036Z,20.87
2022-08-26T04:13:34.332Z,20.87
2022-08-26T04:14:38.190Z,20.88
2022-08-26T04:15:42.009Z,20.87
2022-08-26T04:16:45.645Z,20.86
2022-08-26T04:17:49.176Z,20.86
2022-08-26T04:18:51.766Z,20.86
2022-08-26T04:19:55.019Z,20.84
2022-08-26T04:20:57.070Z,20.84
2022-08-26T04:22:02.679Z,20.83
2022-08-26T04:23:04.967Z,20.82
2022-08-26T04:24:11.909Z,20.83
2022-08-26T04:25:15.304Z,20.82
2022-08-26T04:26:19.732Z,20.81
2022-08-26T04:27:23.152Z,20.80
2022-08-26T04:28:26.786Z,20.78
2022-08-26T04:29:29.879Z,20.77
2022-08-26T04:30:32.414Z,20.76
2022-08-26T04:31:38.247Z,20.76
2022-08-26T04:32:40.213Z,20.75
2022-08-26T04:33:47.701Z,20.76
2022-08-26T04:34:51.794Z,20.75
2022-08-26T04:36:02.003Z,20.76
2022-08-26T04:37:04.848Z,20.77
2022-08-26T04:38:08.736Z,20.77
2022-08-26T04:39:12.461Z,20.77
2022-08-26T04:40:15.576Z,20.76
2022-08-26T04:41:18.394Z,20.78
2022-08-26T04:42:23.297Z,20.76
2022-08-26T04:43:30.604Z,20.77
2022-08-26T04:44:36.805Z,20.76
2022-08-26T04:45:40.447Z,20.75
2022-08-26T04:46:44.194Z,20.77
2022-08-26T04:47:47.540Z,20.75
2022-08-26T04:48:52.327Z,20.76
2022-08-26T04:49:56.131Z,20.75
2022-08-26T04:51:01.342Z,20.74
2022-08-26T04:52:03.942Z,20.76
2022-08-26T04:53:08.008Z,20.74
2022-08-26T04:54:10.250Z,20.76
2022-08-26T04:55:14.494Z,20.74
2022-08-26T04:56:16.630Z,20.78
2022-08-26T04:57:20.068Z,20.74
2022-08-26T04:58:24.482Z,20.74
2022-08-26T04:59:29.777Z,20.72
2022-08-26T05:00:31.689Z,20.71
2022-08-26T05:01:39.501Z,20.72
2022-08-26T05:02:43.309Z,20.71
2022-08-26T05:03:46.434Z,20.70
2022-08-26T05:04:48.385Z,20.70
2022-08-26T05:05:55.278Z,20.70
2022-08-26T05:07:02.705Z,20.70
2022-08-26T05:08:06.093Z,20.70
2022-08-26T05:09:08.243Z,20.70
2022-08-26T05:10:11.387Z,20.69
2022-08-26T05:11:13.601Z,20.69
2022-08-26T05:12:16.399Z,20.70
2022-08-26T05:13:20.830Z,20.70
2022-08-26T05:14:23.883Z,20.69
2022-08-26T05:15:27.275Z,20.70
2022-08-26T05:16:30.392Z,20.69
2022-08-26T05:17:33.355Z,20.71
2022-08-26T05:18:36.826Z,20.69
2022-08-26T05:19:42.856Z,20.71
2022-08-26T05:20:48.252Z,20.69
2022-08-26T05:21:51.179Z,20.70
2022-08-26T05:22:53.082Z,20.68
2022-08-26T05:23:56.961Z,20.69
2022-08-26T05:24:58.864Z,20.68
2022-08-26T05:26:02.062Z,20.67
2022-08-26T05:27:07.513Z,20.67
2022-08-26T05:28:16.980Z,20.67
2022-08-26T05:29:19.915Z,20.67
2022-08-26T05:30:21.883Z,20.68
2022-08-26T05:31:28.259Z,20.67
2022-08-26T05:32:31.905Z,20.68
2022-08-26T05:33:34.237Z,20.67
2022-08-26T05:34:38.398Z,20.68
2022-08-26T05:35:40.760Z,20.67
2022-08-26T05:36:44.358Z,20.65
2022-08-26T05:37:46.515Z,20.66
2022-08-26T05:38:50.533Z,20.64
2022-08-26T05:39:52.806Z,20.64
2022-08-26T05:40:56.316Z,20.64
2022-08-26T05:41:58.542Z,20.63
2022-08-26T05:43:03.465Z,20.63
2022-08-26T05:44:09.826Z,20.63
2022-08-26T05:45:12.954Z,20.62
2022-08-26T05:46:16.291Z,20.61
2022-08-26T05:47:20.999Z,20.63
2022-08-26T05:48:24.371Z,20.62
2022-08-26T05:49:27.604Z,20.63
2022-08-26T05:50:29.824Z,20.63
2022-08-26T05:51:34.153Z,20.62
2022-08-26T05:52:36.491Z,20.63
2022-08-26T05:53:43.805Z,20.65
2022-08-26T05:54:55.103Z,20.64
2022-08-26T05:55:58.664Z,20.65
2022-08-26T05:57:01.704Z,20.63
2022-08-26T05:58:05.183Z,20.63
2022-08-26T05:59:14.113Z,20.64
2022-08-26T06:00:17.898Z,20.64
2022-08-26T06:01:23.777Z,20.65
2022-08-26T06:02:28.739Z,20.66
2022-08-26T06:03:31.782Z,20.65
2022-08-26T06:04:35.080Z,20.65
2022-08-26T06:05:39.452Z,20.66
2022-08-26T06:06:43.133Z,20.64
2022-08-26T06:08:05.849Z,20.65
2022-08-26T06:09:11.590Z,20.65
2022-08-26T06:10:32.374Z,20.65
2022-08-26T06:11:36.593Z,20.65
2022-08-26T06:12:38.537Z,20.64
2022-08-26T06:13:42.637Z,20.64
2022-08-26T06:14:45.664Z,20.64
2022-08-26T06:15:51.732Z,20.64
2022-08-26T06:16:55.202Z,20.63
2022-08-26T06:17:58.599Z,20.63
2022-08-26T06:19:03.834Z,20.63
2022-08-26T06:20:14.339Z,20.63
2022-08-26T06:21:22.192Z,20.64
2022-08-26T06:22:48.230Z,20.64
2022-08-26T06:24:11.248Z,20.65
2022-08-26T06:25:32.195Z,20.66
2022-08-26T06:26:35.788Z,20.67
2022-08-26T06:27:38.561Z,20.67
2022-08-26T06:28:43.490Z,20.66
2022-08-26T06:29:47.094Z,20.67
2022-08-26T06:30:49.007Z,20.66
2022-08-26T06:31:52.175Z,20.67
2022-08-26T06:32:54.272Z,20.68
2022-08-26T06:33:59.371Z,20.67
2022-08-26T06:35:02.637Z,20.67
2022-08-26T06:36:06.608Z,20.68
2022-08-26T06:37:09.755Z,20.68
2022-08-26T06:38:13.945Z,20.67
2022-08-26T06:39:19.235Z,20.68
2022-08-26T06:40:23.310Z,20.67
2022-08-26T06:41:26.392Z,20.67
2022-08-26T06:42:28.338Z,20.68
2022-08-26T06:43:31.529Z,20.67
2022-08-26T06:44:35.461Z,20.68
2022-08-26T06:45:39.743Z,20.67
2022-08-26T06:46:45.857Z,20.67
2022-08-26T06:47:52.860Z,20.67
2022-08-26T06:48:58.129Z,20.66
2022-08-26T06:50:01.468Z,20.66
2022-08-26T06:51:07.549Z,20.67
2022-08-26T06:52:10.871Z,20.68
2022-08-26T06:53:14.280Z,20.67
2022-08-26T06:54:17.156Z,20.68
2022-08-26T06:55:19.417Z,20.68
2022-08-26T06:56:24.493Z,20.69
2022-08-26T06:57:26.419Z,20.68
2022-08-26T06:58:29.350Z,20.69
2022-08-26T06:59:31.313Z,20.69
2022-08-26T07:00:34.918Z,20.68
2022-08-26T07:01:43.088Z,20.69
2022-08-26T07:02:46.054Z,20.69
2022-08-26T07:03:52.899Z,20.69
2022-08-26T07:04:56.792Z,20.68
2022-08-26T07:06:04.737Z,20.68
2022-08-26T07:07:07.230Z,20.67
2022-08-26T07:08:12.677Z,20.68
2022-08-26T07:09:15.379Z,20.67
2022-08-26T07:10:18.740Z,20.67
2022-08-26T07:11:20.827Z,20.66
2022-08-26T07:12:23.769Z,20.67
2022-08-26T07:13:30.593Z,20.66
2022-08-26T07:14:35.434Z,20.66
2022-08-26T07:15:41.139Z,20.66
2022-08-26T07:16:44.197Z,20.66
2022-08-26T07:17:47.147Z,20.65
2022-08-26T07:18:53.081Z,20.67
2022-08-26T07:19:56.016Z,20.66
2022-08-26T07:20:59.709Z,20.67
2022-08-26T07:22:07.345Z,20.67
2022-08-26T07:23:11.831Z,20.67
2022-08-26T07:24:14.940Z,20.67
2022-08-26T07:25:19.363Z,20.67
2022-08-26T07:26:28.580Z,20.67
2022-08-26T07:27:31.668Z,20.67
2022-08-26T07:28:35.779Z,20.67
2022-08-26T07:29:41.205Z,20.68
2022-08-26T07:30:44.182Z,20.67
2022-08-26T07:31:46.283Z,20.69
2022-08-26T07:32:49.739Z,20.67
2022-08-26T07:33:52.106Z,20.69
2022-08-26T07:34:55.215Z,20.69
2022-08-26T07:35:58.322Z,20.68
2022-08-26T07:37:04.902Z,20.69
2022-08-26T07:38:12.171Z,20.69
2022-08-26T07:39:14.883Z,20.69
2022-08-26T07:40:18.202Z,20.70
2022-08-26T07:41:22.871Z,20.70
2022-08-26T07:42:26.071Z,20.69
2022-08-26T07:43:29.357Z,20.71
2022-08-26T07:44:32.571Z,20.70
2022-08-26T07:45:35.650Z,20.70
2022-08-26T07:46:38.734Z,20.70
2022-08-26T07:47:41.755Z,20.70
2022-08-26T07:48:46.150Z,20.70
2022-08-26T07:49:52.682Z,20.71
2022-08-26T07:50:54.896Z,20.70
2022-08-26T07:51:58.901Z,20.70
2022-08-26T07:53:02.760Z,20.72
2022-08-26T07:54:06.217Z,20.72
2022-08-26T07:55:10.707Z,20.71
2022-08-26T07:56:12.814Z,20.72
2022-08-26T07:57:15.955Z,20.72
2022-08-26T07:58:21.253Z,20.72
2022-08-26T07:59:24.936Z,20.73
2022-08-26T08:00:27.900Z,20.73
2022-08-26T08:01:31.653Z,20.73
2022-08-26T08:02:36.472Z,20.74
2022-08-26T08:03:40.536Z,20.72
2022-08-26T08:04:42.515Z,20.72
2022-08-26T08:05:46.352Z,20.72
2022-08-26T08:06:48.886Z,20.71
2022-08-26T08:07:53.486Z,20.71
2022-08-26T08:08:57.420Z,20.72
2022-08-26T08:10:00.420Z,20.72
2022-08-26T08:11:03.292Z,20.72
2022-08-26T08:12:09.433Z,20.72
2022-08-26T08:13:16.678Z,20.71
2022-08-26T08:14:22.109Z,20.72
2022-08-26T08:15:27.960Z,20.71
2022-08-26T08:16:32.201Z,20.72
2022-08-26T08:17:35.619Z,20.72
2022-08-26T08:18:38.858Z,20.73
2022-08-26T08:19:43.561Z,20.73
2022-08-26T08:20:59.138Z,20.72
2022-08-26T08:22:17.809Z,20.73
2022-08-26T08:23:22.984Z,20.73
2022-08-26T08:24:28.656Z,20.74
2022-08-26T08:25:31.548Z,20.75
2022-08-26T08:26:35.368Z,20.74
2022-08-26T08:27:39.894Z,20.74
2022-08-26T08:28:43.356Z,20.74
2022-08-26T08:29:47.083Z,20.74
2022-08-26T08:30:50.842Z,20.76
2022-08-26T08:31:58.304Z,20.75
2022-08-26T08:33:00.703Z,20.78
2022-08-26T08:34:04.025Z,20.77
2022-08-26T08:35:11.574Z,20.78
2022-08-26T08:36:18.591Z,20.78
2022-08-26T08:37:23.888Z,20.80
2022-08-26T08:38:26.598Z,20.80
2022-08-26T08:39:32.995Z,20.81
2022-08-26T08:40:40.233Z,20.81
2022-08-26T08:41:54.739Z,20.82
2022-08-26T08:42:59.863Z,20.82
2022-08-26T08:44:04.130Z,20.81
2022-08-26T08:45:15.407Z,20.84
2022-08-26T08:46:20.178Z,20.83
2022-08-26T08:47:29.585Z,20.83
2022-08-26T08:48:36.665Z,20.85
2022-08-26T08:49:38.707Z,20.85
2022-08-26T08:50:45.914Z,20.87
2022-08-26T08:51:52.282Z,20.88
2022-08-26T08:53:08.810Z,20.89
2022-08-26T08:54:12.207Z,20.89
2022-08-26T08:55:18.289Z,20.89
2022-08-26T08:56:29.963Z,20.90
2022-08-26T08:57:45.277Z,20.93
2022-08-26T08:58:57.349Z,20.94
2022-08-26T09:00:06.351Z,20.96
2022-08-26T09:01:16.432Z,20.97
2022-08-26T09:02:25.658Z,20.99
2022-08-26T09:03:42.887Z,21.01
2022-08-26T09:05:06.633Z,21.02
2022-08-26T09:06:17.362Z,21.04
2022-08-26T09:07:24.547Z,21.06
2022-08-26T09:08:35.172Z,21.09
2022-08-26T09:09:40.503Z,21.11
2022-08-26T09:10:47.197Z,21.12
2022-08-26T09:11:49.707Z,21.13
2022-08-26T09:12:54.264Z,21.14
2022-08-26T09:13:57.695Z,21.15
2022-08-26T09:15:06.024Z,21.15
2022-08-26T09:16:13.953Z,21.15
2022-08-26T09:17:25.807Z,21.17
2022-08-26T09:18:42.888Z,21.17
2022-08-26T09:19:53.192Z,21.17
2022-08-26T09:20:58.478Z,21.17
2022-08-26T09:22:07.006Z,21.21
2022-08-26T09:23:11.432Z,21.22
2022-08-26T09:24:14.473Z,21.23
2022-08-26T09:25:20.099Z,21.24
2022-08-26T09:26:29.224Z,21.24
2022-08-26T09:27:42.766Z,21.25
2022-08-26T09:28:48.201Z,21.26
2022-08-26T09:29:51.365Z,21.28
2022-08-26T09:31:14.688Z,21.27
2022-08-26T09:32:22.236Z,21.29
2022-08-26T09:33:28.177Z,21.30
2022-08-26T09:34:31.432Z,21.30
2022-08-26T09:35:35.977Z,21.30
2022-08-26T09:36:41.389Z,21.30
2022-08-26T09:38:55.872Z,21.31
2022-08-26T09:40:21.045Z,21.31
2022-08-26T09:41:32.109Z,21.30
2022-08-26T09:42:34.319Z,21.31
2022-08-26T09:43:37.537Z,21.32
2022-08-26T09:44:56.417Z,21.31
2022-08-26T09:46:14.411Z,21.32
2022-08-26T09:47:23.250Z,21.32
2022-08-26T09:48:30.339Z,21.32
2022-08-26T09:49:36.198Z,21.32
2022-08-26T09:50:50.248Z,21.33
2022-08-26T09:52:14.349Z,21.33
2022-08-26T09:53:28.513Z,21.33
2022-08-26T09:54:32.508Z,21.35
2022-08-26T09:55:37.219Z,21.35
2022-08-26T09:56:41.177Z,21.36
2022-08-26T09:57:49.510Z,21.36
2022-08-26T09:58:54.911Z,21.37
2022-08-26T09:59:57.421Z,21.37
2022-08-26T10:01:02.385Z,21.38
2022-08-26T10:02:20.712Z,21.40
2022-08-26T10:03:27.146Z,21.41
2022-08-26T10:04:31.229Z,21.44
2022-08-26T10:05:40.989Z,21.46
2022-08-26T10:06:54.522Z,21.47
2022-08-26T10:08:00.185Z,21.49
2022-08-26T10:09:08.293Z,21.49
2022-08-26T10:10:18.423Z,21.51
2022-08-26T10:11:30.531Z,21.52
2022-08-26T10:12:38.858Z,21.55
2022-08-26T10:13:45.947Z,21.56
2022-08-26T10:14:51.972Z,21.57
2022-08-26T10:16:02.000Z,21.60
2022-08-26T10:17:09.226Z,21.60
2022-08-26T10:18:17.594Z,21.61
2022-08-26T10:19:25.323Z,21.60
2022-08-26T10:20:52.355Z,21.60
2022-08-26T10:22:00.367Z,21.61
2022-08-26T10:23:08.080Z,21.62
2022-08-26T10:24:16.895Z,21.63
2022-08-26T10:25:24.686Z,21.62
2022-08-26T10:26:34.302Z,21.63
2022-08-26T10:27:49.615Z,21.63
2022-08-26T10:29:03.772Z,21.64
2022-08-26T10:30:12.555Z,21.64
2022-08-26T10:31:27.445Z,21.65
2022-08-26T10:32:36.190Z,21.66
2022-08-26T10:33:44.444Z,21.67
2022-08-26T10:34:46.620Z,21.69
2022-08-26T10:35:54.259Z,21.69
2022-08-26T10:37:14.316Z,21.71
2022-08-26T10:38:28.793Z,21.73
2022-08-26T10:39:38.146Z,21.75
2022-08-26T10:40:52.801Z,21.77
2022-08-26T10:42:00.084Z,21.79
2022-08-26T10:43:11.140Z,21.80
2022-08-26T10:44:18.472Z,21.81
2022-08-26T10:45:25.370Z,21.82
2022-08-26T10:46:36.203Z,21.84
2022-08-26T10:47:46.828Z,21.85
2022-08-26T10:48:57.392Z,21.89
2022-08-26T10:50:04.591Z,21.92
2022-08-26T10:51:10.420Z,21.97
2022-08-26T10:52:19.519Z,22.00
2022-08-26T10:53:29.477Z,22.02
2022-08-26T10:54:44.316Z,22.03
2022-08-26T10:55:55.252Z,22.04
2022-08-26T10:57:03.015Z,22.08
2022-08-26T10:58:26.755Z,22.07
2022-08-26T10:59:46.297Z,22.09
2022-08-26T11:01:14.434Z,22.11
2022-08-26T11:02:31.408Z,22.12
2022-08-26T11:03:40.281Z,22.14
2022-08-26T11:04:56.940Z,22.14
2022-08-26T11:06:25.775Z,22.14
2022-08-26T11:07:37.929Z,22.15
2022-08-26T11:08:46.207Z,22.16
2022-08-26T11:09:49.670Z,22.16
2022-08-26T11:10:58.006Z,22.18
2022-08-26T11:12:06.786Z,22.22
2022-08-26T11:13:14.958Z,22.25
2022-08-26T11:14:45.998Z,22.27
2022-08-26T11:16:01.086Z,22.29
2022-08-26T11:17:05.066Z,22.30
2022-08-26T11:18:10.783Z,22.34
2022-08-26T11:20:00.325Z,22.33
2022-08-26T11:21:49.409Z,22.34
2022-08-26T11:22:59.633Z,22.32
2022-08-26T11:24:02.293Z,22.32
2022-08-26T11:25:14.213Z,22.30
2022-08-26T11:26:35.862Z,22.31
2022-08-26T11:28:08.599Z,22.30
2022-08-26T11:29:13.132Z,22.31
2022-08-26T11:30:58.154Z,22.33
2022-08-26T11:32:00.656Z,22.37
2022-08-26T11:33:06.193Z,22.42
2022-08-26T11:34:14.795Z,22.40
2022-08-26T11:35:52.273Z,22.38
2022-08-26T11:37:00.438Z,22.37
2022-08-26T11:38:15.647Z,22.37
2022-08-26T11:39:24.084Z,22.38
2022-08-26T11:40:31.505Z,22.39
2022-08-26T11:41:34.571Z,22.42
2022-08-26T11:42:41.963Z,22.46
2022-08-26T11:43:49.428Z,22.48
2022-08-26T11:44:52.740Z,22.51
2022-08-26T11:46:02.184Z,22.52
2022-08-26T11:47:11.652Z,22.52
2022-08-26T11:48:19.552Z,22.55
2022-08-26T11:49:24.606Z,22.59
2022-08-26T11:50:29.821Z,22.61
2022-08-26T11:51:37.007Z,22.63
2022-08-26T11:52:51.561Z,22.67
2022-08-26T11:54:10.676Z,22.68
2022-08-26T11:55:16.179Z,22.69
2022-08-26T11:56:27.401Z,22.71
2022-08-26T11:57:41.772Z,22.74
2022-08-26T11:58:46.967Z,22.75
2022-08-26T11:59:50.054Z,22.76
2022-08-26T12:00:57.884Z,22.75
2022-08-26T12:02:02.231Z,22.75
2022-08-26T12:03:08.990Z,22.76
2022-08-26T12:04:13.981Z,22.79
2022-08-26T12:05:25.074Z,22.79
2022-08-26T12:06:32.856Z,22.86
2022-08-26T12:07:36.882Z,22.88
2022-08-26T12:08:45.115Z,22.87
2022-08-26T12:10:00.520Z,22.86
2022-08-26T12:11:09.246Z,22.87
2022-08-26T12:12:14.072Z,22.87
2022-08-26T12:13:26.235Z,22.88
2022-08-26T12:14:29.572Z,22.90
2022-08-26T12:15:35.617Z,22.88
2022-08-26T12:16:40.158Z,22.90
2022-08-26T12:17:44.742Z,22.91
2022-08-26T12:18:46.878Z,22.90
2022-08-26T12:19:49.831Z,22.93
2022-08-26T12:20:53.956Z,22.95
2022-08-26T12:22:02.186Z,22.99
2022-08-26T12:23:05.017Z,23.02
2022-08-26T12:24:09.874Z,23.06
2022-08-26T12:25:15.284Z,23.08
2022-08-26T12:26:26.446Z,23.12
2022-08-26T12:27:32.066Z,23.12
2022-08-26T12:28:44.786Z,23.13
2022-08-26T12:30:02.696Z,23.12
2022-08-26T12:31:06.471Z,23.13
2022-08-26T12:32:13.208Z,23.13
2022-08-26T12:33:22.935Z,23.13
2022-08-26T12:34:28.096Z,23.13
2022-08-26T12:35:32.261Z,23.14
2022-08-26T12:36:40.402Z,23.13
2022-08-26T12:37:47.939Z,23.15
2022-08-26T12:38:51.319Z,23.14
2022-08-26T12:39:54.493Z,23.13
2022-08-26T12:40:58.318Z,23.15
2022-08-26T12:42:03.233Z,23.15
2022-08-26T12:43:07.507Z,23.15
2022-08-26T12:44:31.332Z,23.15
2022-08-26T12:45:35.803Z,23.15
2022-08-26T12:46:41.623Z,23.15
2022-08-26T12:47:45.764Z,23.15
2022-08-26T12:48:50.268Z,23.16
2022-08-26T12:50:02.265Z,23.17
2022-08-26T12:51:07.227Z,23.18
2022-08-26T12:52:35.311Z,23.21
2022-08-26T12:53:43.275Z,23.24
2022-08-26T12:55:02.785Z,23.27
2022-08-26T12:56:22.070Z,23.28
2022-08-26T12:57:27.999Z,23.29
2022-08-26T12:58:33.168Z,23.31
2022-08-26T12:59:35.299Z,23.33
2022-08-26T13:00:42.041Z,23.35
2022-08-26T13:01:46.902Z,23.37
2022-08-26T13:02:48.901Z,23.38
2022-08-26T13:03:51.994Z,23.41
2022-08-26T13:05:00.724Z,23.44
2022-08-26T13:06:27.954Z,23.46
2022-08-26T13:07:29.992Z,23.47
2022-08-26T13:08:32.958Z,23.50
2022-08-26T13:09:37.540Z,23.51
2022-08-26T13:10:42.669Z,23.52
2022-08-26T13:12:02.244Z,23.52
2022-08-26T13:13:04.830Z,23.53
2022-08-26T13:14:10.231Z,23.53
2022-08-26T13:15:12.227Z,23.56
2022-08-26T13:16:15.453Z,23.56
2022-08-26T13:17:17.629Z,23.58
2022-08-26T13:18:20.715Z,23.59
2022-08-26T13:19:25.488Z,23.62
2022-08-26T13:20:28.754Z,23.67
2022-08-26T13:21:37.517Z,23.68
2022-08-26T13:23:49.047Z,23.68
2022-08-26T13:24:54.334Z,23.67
2022-08-26T13:25:57.250Z,23.66
2022-08-26T13:27:01.244Z,23.66
2022-08-26T13:28:04.982Z,23.65
2022-08-26T13:29:10.155Z,23.66
2022-08-26T13:30:14.589Z,23.65
2022-08-26T13:31:17.143Z,23.66
2022-08-26T13:32:22.560Z,23.67
2022-08-26T13:33:30.300Z,23.69
2022-08-26T13:34:33.318Z,23.69
2022-08-26T13:35:36.221Z,23.71
2022-08-26T13:36:38.375Z,23.71
2022-08-26T13:37:41.335Z,23.72
2022-08-26T13:38:45.021Z,23.72
2022-08-26T13:39:54.714Z,23.71
2022-08-26T13:40:59.710Z,23.70
2022-08-26T13:42:04.303Z,23.73
2022-08-26T13:43:06.518Z,23.73
2022-08-26T13:44:09.727Z,23.73
2022-08-26T13:45:12.033Z,23.75
2022-08-26T13:46:15.240Z,23.75
2022-08-26T13:47:17.730Z,23.78
2022-08-26T13:48:23.348Z,23.79
2022-08-26T13:49:26.506Z,23.81
2022-08-26T13:50:28.467Z,23.81
2022-08-26T13:51:32.385Z,23.81
2022-08-26T13:52:34.430Z,23.82
2022-08-26T13:53:37.797Z,23.79
2022-08-26T13:54:43.541Z,23.79
2022-08-26T13:55:46.691Z,23.79
2022-08-26T13:56:48.795Z,23.78
2022-08-26T13:57:55.635Z,23.78
2022-08-26T13:58:58.389Z,23.77
2022-08-26T14:00:01.571Z,23.74
2022-08-26T14:01:15.344Z,23.73
2022-08-26T14:02:18.536Z,23.69
2022-08-26T14:03:21.832Z,23.66
2022-08-26T14:04:27.253Z,23.66
2022-08-26T14:05:31.073Z,23.72
2022-08-26T14:06:33.117Z,23.75
2022-08-26T14:07:36.793Z,23.78
2022-08-26T14:08:39.003Z,23.78
2022-08-26T14:09:42.387Z,23.78
2022-08-26T14:10:44.435Z,23.77
2022-08-26T14:11:53.969Z,23.75
2022-08-26T14:12:59.410Z,23.71
2022-08-26T14:14:01.317Z,23.67
2022-08-26T14:15:05.157Z,23.64
2022-08-26T14:16:10.497Z,23.62